Time;durP1;ratioP1;P1;durP2;ratioP2;P2;SDS_P1;SDS_P2;PMS_P1;PMS_P2;Temp;Humidity;BMP_temperature;BMP_pressure;BME280_temperature;BME280_humidity;BME280_pressure;Samples;Min_cycle;Max_cycle;Signal;HPM_P1;HPM_P2
2024/01/08 00:02:07;;;;;;;11.57;3.00;;;;;;;;;;4964817;28;20037;-76
2024/01/08 00:04:33;;;;;;;11.77;4.15;;;;;;;;;;4975911;28;20038;-75
2024/01/08 00:06:59;;;;;;;15.32;4.22;;;;;;;;;;4958839;28;20156;-75
2024/01/08 00:09:25;;;;;;;15.65;4.85;;;;;;;;;;4956331;28;20073;-74
2024/01/08 00:11:51;;;;;;;13.25;4.97;;;;;;;;;;4963992;28;20044;-75
2024/01/08 00:14:18;;;;;;;10.95;3.80;;;;;;;;;;4974856;28;20138;-75
2024/01/08 00:16:44;;;;;;;;;;;;;;;;;;4983016;28;20497;-75
2024/01/08 00:19:10;;;;;;;11.98;2.90;;;;;;;;;;4967714;28;19910;-76
2024/01/08 00:21:36;;;;;;;12.75;3.03;;;;;;;;;;4977422;28;20046;-75
2024/01/08 00:24:03;;;;;;;10.02;2.60;;;;;;;;;;4952570;28;20033;-74
2024/01/08 00:26:31;;;;;;;11.00;2.95;;;;;;;;;;4954752;28;20034;-75
2024/01/08 00:28:59;;;;;;;12.75;2.88;;;;;;;;;;4969467;28;20954;-74
2024/01/08 00:31:26;;;;;;;9.45;2.95;;;;;;;;;;4963289;28;20533;-77
2024/01/08 00:33:53;;;;;;;13.90;4.00;;;;;;;;;;4973897;28;20188;-77
2024/01/08 00:36:19;;;;;;;;;;;;;;;;;;4987940;28;20042;-74
2024/01/08 00:38:45;;;;;;;16.85;6.55;;;;;;;;;;4983740;28;20021;-75
2024/01/08 00:41:11;;;;;;;12.88;4.82;;;;;;;;;;4969772;28;21391;-75
2024/01/08 00:43:37;;;;;;;14.20;4.50;;;;;;;;;;4987290;28;20039;-75
2024/01/08 00:46:03;;;;;;;9.65;2.90;;;;;;;;;;4970656;28;20049;-75
2024/01/08 00:48:29;;;;;;;10.98;3.10;;;;;;;;;;4959885;28;20475;-74
2024/01/08 00:50:57;;;;;;;9.75;2.45;;;;;;;;;;4960642;28;20030;-75
2024/01/08 00:53:23;;;;;;;9.98;2.65;;;;;;;;;;4985182;28;20134;-76
2024/01/08 00:55:50;;;;;;;9.18;2.50;;;;;;;;;;4982147;28;20026;-75
2024/01/08 00:58:16;;;;;;;10.77;2.65;;;;;;;;;;4986167;28;20042;-75
2024/01/08 01:00:43;;;;;;;12.63;3.20;;;;;;;;;;4957206;28;20028;-75
2024/01/08 01:03:09;;;;;;;12.20;5.18;;;;;;;;;;4963175;28;20042;-75
2024/01/08 01:05:36;;;;;;;9.23;2.60;;;;;;;;;;4984674;28;20065;-74
2024/01/08 01:08:02;;;;;;;11.77;2.90;;;;;;;;;;4963755;28;20034;-74
2024/01/08 01:10:28;;;;;;;8.18;2.42;;;;;;;;;;4968631;28;20027;-76
2024/01/08 01:12:54;;;;;;;11.25;2.97;;;;;;;;;;4954067;28;20093;-75
2024/01/08 01:15:20;;;;;;;12.20;2.78;;;;;;;;;;4962770;28;20100;-75
2024/01/08 01:17:46;;;;;;;10.55;2.40;;;;;;;;;;4966363;28;20034;-75
2024/01/08 01:20:13;;;;;;;11.15;2.22;;;;;;;;;;4965055;28;20107;-75
2024/01/08 01:22:40;;;;;;;10.27;2.20;;;;;;;;;;4962002;28;20039;-75
2024/01/08 01:25:06;;;;;;;8.80;2.03;;;;;;;;;;4959447;28;20022;-75
2024/01/08 01:27:32;;;;;;;9.30;2.45;;;;;;;;;;4965026;28;20096;-75
2024/01/08 01:29:58;;;;;;;9.63;2.30;;;;;;;;;;4961876;28;20034;-76
2024/01/08 01:32:24;;;;;;;12.25;2.22;;;;;;;;;;4964499;28;20034;-75
2024/01/08 01:34:52;;;;;;;14.63;2.38;;;;;;;;;;4966742;28;20044;-76
2024/01/08 01:37:18;;;;;;;9.00;1.75;;;;;;;;;;4951113;28;20052;-75
2024/01/08 01:39:44;;;;;;;9.07;2.00;;;;;;;;;;4961509;28;20023;-75
2024/01/08 01:42:11;;;;;;;8.25;1.80;;;;;;;;;;4960498;28;20030;-75
2024/01/08 01:44:39;;;;;;;11.63;2.15;;;;;;;;;;4960842;28;20546;-75
2024/01/08 01:47:06;;;;;;;11.52;2.55;;;;;;;;;;4978273;28;20034;-75
2024/01/08 01:49:33;;;;;;;10.20;2.25;;;;;;;;;;4962026;28;20033;-74
2024/01/08 01:51:59;;;;;;;9.88;2.03;;;;;;;;;;4941226;28;20038;-75
2024/01/08 01:54:29;;;;;;;11.63;2.22;;;;;;;;;;4961101;28;20114;-75
2024/01/08 01:57:00;;;;;;;9.75;2.17;;;;;;;;;;4954238;28;20050;-75
2024/01/08 01:59:30;;;;;;;8.63;2.22;;;;;;;;;;4966180;28;20058;-75
2024/01/08 02:02:03;;;;;;;9.52;2.00;;;;;;;;;;4963108;28;20051;-75
2024/01/08 02:04:30;;;;;;;9.10;2.38;;;;;;;;;;4964039;28;20058;-75
2024/01/08 02:06:57;;;;;;;10.32;2.15;;;;;;;;;;4950018;28;20191;-75
2024/01/08 02:09:23;;;;;;;11.88;2.75;;;;;;;;;;4951023;28;20033;-74
2024/01/08 02:11:49;;;;;;;11.05;2.60;;;;;;;;;;4964654;28;20497;-75
2024/01/08 02:14:16;;;;;;;9.77;2.45;;;;;;;;;;4946533;28;20490;-75
2024/01/08 02:16:43;;;;;;;9.32;2.35;;;;;;;;;;4967005;28;20044;-75
2024/01/08 02:19:12;;;;;;;11.95;2.92;;;;;;;;;;4944040;28;20038;-74
2024/01/08 02:21:38;;;;;;;10.18;2.50;;;;;;;;;;4962455;28;20034;-75
2024/01/08 02:24:05;;;;;;;11.15;2.63;;;;;;;;;;4956162;28;20039;-74
2024/01/08 02:26:36;;;;;;;9.43;2.30;;;;;;;;;;4952402;28;20481;-75
2024/01/08 02:29:03;;;;;;;10.38;2.60;;;;;;;;;;4962396;28;20045;-75
2024/01/08 02:31:30;;;;;;;10.02;2.55;;;;;;;;;;4964970;28;20045;-74
2024/01/08 02:33:56;;;;;;;9.73;2.50;;;;;;;;;;4946302;28;20043;-74
2024/01/08 02:36:24;;;;;;;8.40;2.38;;;;;;;;;;4960509;28;20053;-75
2024/01/08 02:38:53;;;;;;;10.90;2.35;;;;;;;;;;4959901;28;20031;-75
2024/01/08 02:41:19;;;;;;;8.95;2.33;;;;;;;;;;4959958;28;20073;-75
2024/01/08 02:43:46;;;;;;;9.13;2.30;;;;;;;;;;4964673;28;20092;-74
2024/01/08 02:46:12;;;;;;;10.05;2.05;;;;;;;;;;4959875;28;20049;-75
2024/01/08 02:48:38;;;;;;;8.02;2.30;;;;;;;;;;4963144;28;20029;-77
2024/01/08 02:51:06;;;;;;;9.98;2.70;;;;;;;;;;4959474;28;20065;-74
2024/01/08 02:53:32;;;;;;;10.98;2.15;;;;;;;;;;4959019;28;20056;-75
2024/01/08 02:55:58;;;;;;;12.50;2.88;;;;;;;;;;4946545;28;20031;-74
2024/01/08 02:58:24;;;;;;;10.60;2.35;;;;;;;;;;4945179;28;20122;-75
2024/01/08 03:00:51;;;;;;;9.65;2.58;;;;;;;;;;4964179;28;20172;-74
2024/01/08 03:03:19;;;;;;;10.25;2.67;;;;;;;;;;4951488;28;20146;-75
2024/01/08 03:05:45;;;;;;;10.90;2.72;;;;;;;;;;4966784;28;20034;-75
2024/01/08 03:08:11;;;;;;;11.15;2.33;;;;;;;;;;4972560;28;20026;-75
2024/01/08 03:10:38;;;;;;;12.80;2.50;;;;;;;;;;4960453;28;20039;-75
2024/01/08 03:13:04;;;;;;;12.02;2.50;;;;;;;;;;4948094;28;20076;-75
2024/01/08 03:15:30;;;;;;;10.82;2.08;;;;;;;;;;4964122;28;20034;-74
2024/01/08 03:17:56;;;;;;;9.93;2.38;;;;;;;;;;4958659;28;20029;-75
2024/01/08 03:20:22;;;;;;;11.02;3.08;;;;;;;;;;4965017;28;20045;-75
2024/01/08 03:22:50;;;;;;;11.30;3.22;;;;;;;;;;4973997;28;20062;-75
2024/01/08 03:25:18;;;;;;;11.57;3.08;;;;;;;;;;4936896;28;20107;-75
2024/01/08 03:27:44;;;;;;;11.30;3.15;;;;;;;;;;4946475;28;20588;-74
2024/01/08 03:30:10;;;;;;;12.50;3.17;;;;;;;;;;4952814;28;20141;-75
2024/01/08 03:32:37;;;;;;;11.73;3.20;;;;;;;;;;4946175;28;20064;-75
2024/01/08 03:35:03;;;;;;;9.75;3.08;;;;;;;;;;4945114;28;20041;-75
2024/01/08 03:37:29;;;;;;;12.13;3.58;;;;;;;;;;4955578;28;20034;-75
2024/01/08 03:39:57;;;;;;;12.43;3.83;;;;;;;;;;4946093;28;20026;-75
2024/01/08 03:42:24;;;;;;;12.65;4.13;;;;;;;;;;4953188;28;20031;-75
2024/01/08 03:44:52;;;;;;;12.13;3.88;;;;;;;;;;4947790;28;20041;-75
2024/01/08 03:47:18;;;;;;;11.93;3.72;;;;;;;;;;4964912;28;20023;-74
2024/01/08 03:49:45;;;;;;;9.65;3.33;;;;;;;;;;4963599;28;20069;-75
2024/01/08 03:52:13;;;;;;;10.23;2.90;;;;;;;;;;4963125;28;20057;-75
2024/01/08 03:54:40;;;;;;;10.63;3.28;;;;;;;;;;4959161;28;20068;-75
2024/01/08 03:57:07;;;;;;;11.52;3.40;;;;;;;;;;4962203;28;20034;-75
2024/01/08 03:59:33;;;;;;;8.95;2.50;;;;;;;;;;4961098;28;20125;-75
2024/01/08 04:02:01;;;;;;;13.32;3.10;;;;;;;;;;4966410;28;20767;-75
2024/01/08 04:04:27;;;;;;;10.88;2.90;;;;;;;;;;4969845;28;20044;-74
2024/01/08 04:06:53;;;;;;;10.95;2.72;;;;;;;;;;4966718;28;20034;-74
2024/01/08 04:09:21;;;;;;;9.38;2.65;;;;;;;;;;4951788;28;20030;-74
2024/01/08 04:11:48;;;;;;;9.60;2.75;;;;;;;;;;4946447;28;20041;-76
2024/01/08 04:14:14;;;;;;;10.32;2.80;;;;;;;;;;4971183;28;20034;-76
2024/01/08 04:16:40;;;;;;;11.35;3.38;;;;;;;;;;4965227;28;20026;-76
2024/01/08 04:19:08;;;;;;;10.32;2.90;;;;;;;;;;4965748;28;20491;-76
2024/01/08 04:21:34;;;;;;;10.82;2.88;;;;;;;;;;4968565;28;20474;-76
2024/01/08 04:24:02;;;;;;;11.68;2.90;;;;;;;;;;4951021;28;20150;-76
2024/01/08 04:26:28;;;;;;;11.20;3.10;;;;;;;;;;4966637;28;20027;-76
2024/01/08 04:28:54;;;;;;;9.13;2.83;;;;;;;;;;4965675;28;20035;-77
2024/01/08 04:31:22;;;;;;;10.27;2.85;;;;;;;;;;4963010;28;20530;-76
2024/01/08 04:33:49;;;;;;;11.60;2.92;;;;;;;;;;4949973;28;20141;-77
2024/01/08 04:36:16;;;;;;;;;;;;;;;;;;4957468;28;20027;-75
2024/01/08 04:38:44;;;;;;;11.25;2.63;;;;;;;;;;4969178;28;19913;-74
2024/01/08 04:41:18;;;;;;;12.65;3.08;;;;;;;;;;4966783;28;20035;-74
2024/01/08 04:43:44;;;;;;;9.50;2.92;;;;;;;;;;4970731;28;20026;-74
2024/01/08 04:46:12;;;;;;;10.45;2.65;;;;;;;;;;4965449;28;23793;-74
2024/01/08 04:48:39;;;;;;;13.38;3.10;;;;;;;;;;4966185;28;20097;-74
2024/01/08 04:51:05;;;;;;;11.75;3.25;;;;;;;;;;5031171;28;20041;-74
2024/01/08 04:53:37;;;;;;;12.10;3.10;;;;;;;;;;4948895;28;20026;-74
2024/01/08 04:56:03;;;;;;;9.63;2.90;;;;;;;;;;4965163;28;20040;-77
2024/01/08 04:58:29;;;;;;;11.18;3.47;;;;;;;;;;4963884;28;20030;-74
2024/01/08 05:00:55;;;;;;;12.20;3.15;;;;;;;;;;4961357;28;20062;-77
2024/01/08 05:03:21;;;;;;;10.27;2.85;;;;;;;;;;4965464;28;20026;-76
2024/01/08 05:05:48;;;;;;;12.90;2.95;;;;;;;;;;4950250;28;20058;-76
2024/01/08 05:08:14;;;;;;;9.10;2.53;;;;;;;;;;4962188;28;20027;-76
2024/01/08 05:10:41;;;;;;;10.88;2.78;;;;;;;;;;4970450;28;20026;-76
2024/01/08 05:13:09;;;;;;;9.40;2.90;;;;;;;;;;4965653;28;20113;-76
2024/01/08 05:15:36;;;;;;;11.73;2.60;;;;;;;;;;4952841;28;20450;-76
2024/01/08 05:18:04;;;;;;;10.98;2.90;;;;;;;;;;4966530;28;20028;-73
2024/01/08 05:20:30;;;;;;;12.00;3.08;;;;;;;;;;4953136;28;20506;-76
2024/01/08 05:22:57;;;;;;;10.38;2.78;;;;;;;;;;4971941;28;20121;-76
2024/01/08 05:25:23;;;;;;;;;;;;;;;;;;4968139;28;20038;-75
2024/01/08 05:27:50;;;;;;;10.48;3.22;;;;;;;;;;4964076;28;19967;-75
2024/01/08 05:30:16;;;;;;;11.23;3.00;;;;;;;;;;4961806;28;20137;-76
2024/01/08 05:32:42;;;;;;;11.20;3.17;;;;;;;;;;4966133;28;20088;-76
2024/01/08 05:35:09;;;;;;;9.73;2.85;;;;;;;;;;4949723;28;21132;-75
2024/01/08 05:37:35;;;;;;;12.32;2.83;;;;;;;;;;5025468;28;20038;-75
2024/01/08 05:40:03;;;;;;;10.52;2.90;;;;;;;;;;4951904;28;20505;-75
2024/01/08 05:42:30;;;;;;;11.07;3.00;;;;;;;;;;4963858;28;20030;-75
2024/01/08 05:44:58;;;;;;;10.50;2.88;;;;;;;;;;4951376;28;20804;-76
2024/01/08 05:47:27;;;;;;;12.48;2.88;;;;;;;;;;4961243;28;20034;-76
2024/01/08 05:49:53;;;;;;;14.23;3.80;;;;;;;;;;5020412;28;20034;-76
2024/01/08 05:52:20;;;;;;;11.07;3.20;;;;;;;;;;4951072;28;20061;-76
2024/01/08 05:54:48;;;;;;;9.90;2.90;;;;;;;;;;4965792;28;20049;-76
2024/01/08 05:57:15;;;;;;;10.45;2.90;;;;;;;;;;5036324;28;21432;-76
2024/01/08 05:59:42;;;;;;;12.18;3.80;;;;;;;;;;5027698;28;20025;-74
2024/01/08 06:02:09;;;;;;;14.55;4.28;;;;;;;;;;5022327;28;20033;-76
2024/01/08 06:04:35;;;;;;;14.23;4.60;;;;;;;;;;5024075;28;20037;-76
2024/01/08 06:07:01;;;;;;;14.07;4.10;;;;;;;;;;5018469;28;20025;-75
2024/01/08 06:09:29;;;;;;;12.65;3.67;;;;;;;;;;5024901;28;21004;-75
2024/01/08 06:11:55;;;;;;;10.32;3.65;;;;;;;;;;5024213;28;20493;-75
2024/01/08 06:14:21;;;;;;;14.05;3.67;;;;;;;;;;5020719;28;20029;-75
2024/01/08 06:16:47;;;;;;;10.90;3.63;;;;;;;;;;5023719;28;20140;-75
2024/01/08 06:19:15;;;;;;;12.93;3.92;;;;;;;;;;5024952;28;20025;-75
2024/01/08 06:21:41;;;;;;;11.13;4.50;;;;;;;;;;5025741;28;20049;-75
2024/01/08 06:24:07;;;;;;;12.98;4.80;;;;;;;;;;5023294;28;20036;-75
2024/01/08 06:26:34;;;;;;;12.27;4.60;;;;;;;;;;5025895;28;20108;-75
2024/01/08 06:29:00;;;;;;;13.80;4.60;;;;;;;;;;5025397;28;20044;-77
2024/01/08 06:31:27;;;;;;;12.52;4.38;;;;;;;;;;5022903;28;20056;-78
2024/01/08 06:33:53;;;;;;;17.38;5.22;;;;;;;;;;5007701;28;20037;-76
2024/01/08 06:36:19;;;;;;;17.65;6.40;;;;;;;;;;5022856;28;20025;-75
2024/01/08 06:38:48;;;;;;;16.95;5.57;;;;;;;;;;5024446;28;20021;-75
2024/01/08 06:41:14;;;;;;;16.58;6.35;;;;;;;;;;5023780;28;20037;-76
2024/01/08 06:43:40;;;;;;;15.88;5.85;;;;;;;;;;5026078;28;20509;-76
2024/01/08 06:46:08;;;;;;;15.55;6.05;;;;;;;;;;5025306;28;20047;-75
2024/01/08 06:48:35;;;;;;;14.65;5.35;;;;;;;;;;5024800;28;20039;-75
2024/01/08 06:51:03;;;;;;;16.10;5.68;;;;;;;;;;5022073;28;20730;-75
2024/01/08 06:53:29;;;;;;;11.88;4.00;;;;;;;;;;5022274;28;20025;-74
2024/01/08 06:55:58;;;;;;;14.15;4.07;;;;;;;;;;5037483;28;20745;-76
2024/01/08 06:58:24;;;;;;;11.00;3.63;;;;;;;;;;4925677;28;20050;-76
2024/01/08 07:00:51;;;;;;;12.93;3.10;;;;;;;;;;4921133;28;20100;-77
2024/01/08 07:03:19;;;;;;;11.75;3.63;;;;;;;;;;4923296;28;20786;-76
2024/01/08 07:05:45;;;;;;;9.63;2.85;;;;;;;;;;4927172;28;20188;-75
2024/01/08 07:08:11;;;;;;;14.10;4.22;;;;;;;;;;4926030;28;20134;-76
2024/01/08 07:10:37;;;;;;;10.70;3.78;;;;;;;;;;4942576;28;20902;-77
2024/01/08 07:13:03;;;;;;;18.63;4.85;;;;;;;;;;4924475;28;20113;-77
2024/01/08 07:15:39;;;;;;;12.57;4.75;;;;;;;;;;4932211;28;20118;-77
2024/01/08 07:18:08;;;;;;;12.30;5.37;;;;;;;;;;4924610;28;20027;-77
2024/01/08 07:20:36;;;;;;;11.57;4.25;;;;;;;;;;4940055;28;20651;-77
2024/01/08 07:23:13;;;;;;;9.77;3.40;;;;;;;;;;4926509;28;20030;-75
2024/01/08 07:25:41;;;;;;;10.18;3.55;;;;;;;;;;4925202;28;20035;-74
2024/01/08 07:28:09;;;;;;;9.55;3.38;;;;;;;;;;4925282;28;20065;-75
2024/01/08 07:30:37;;;;;;;8.07;3.00;;;;;;;;;;4945474;28;20740;-74
2024/01/08 07:33:04;;;;;;;11.65;3.28;;;;;;;;;;4921437;28;20027;-75
2024/01/08 07:35:30;;;;;;;;;;;;;;;;;;4931169;28;20085;-75
2024/01/08 07:37:56;;;;;;;10.43;2.92;;;;;;;;;;4936221;28;20463;-75
2024/01/08 07:40:23;;;;;;;11.20;2.95;;;;;;;;;;4929028;28;20023;-75
2024/01/08 07:42:49;;;;;;;8.18;2.80;;;;;;;;;;4928217;28;20042;-76
2024/01/08 07:45:17;;;;;;;9.57;3.20;;;;;;;;;;4926166;28;20023;-75
2024/01/08 07:47:43;;;;;;;11.15;3.70;;;;;;;;;;4952125;28;20038;-75
2024/01/08 07:50:10;;;;;;;10.75;3.50;;;;;;;;;;4923480;28;20518;-74
2024/01/08 07:52:36;;;;;;;8.73;3.20;;;;;;;;;;4924868;28;20046;-75
2024/01/08 07:55:06;;;;;;;9.52;3.28;;;;;;;;;;4919929;28;20043;-75
2024/01/08 07:57:34;;;;;;;8.88;3.40;;;;;;;;;;4948744;28;20108;-75
2024/01/08 08:00:03;;;;;;;10.43;3.55;;;;;;;;;;4958580;28;20037;-75
2024/01/08 08:02:30;;;;;;;12.63;4.10;;;;;;;;;;4962394;28;20531;-75
2024/01/08 08:04:56;;;;;;;12.80;3.90;;;;;;;;;;4946747;28;20123;-74
2024/01/08 08:07:24;;;;;;;13.02;4.82;;;;;;;;;;4946815;28;20573;-75
2024/01/08 08:09:52;;;;;;;14.52;5.38;;;;;;;;;;4950734;28;20535;-75
2024/01/08 08:12:19;;;;;;;16.65;6.78;;;;;;;;;;4960725;28;20041;-75
2024/01/08 08:14:47;;;;;;;12.85;4.82;;;;;;;;;;4967341;28;20095;-76
2024/01/08 08:17:13;;;;;;;11.13;4.22;;;;;;;;;;4947839;28;20041;-75
2024/01/08 08:19:43;;;;;;;13.15;4.20;;;;;;;;;;4955614;28;20038;-75
2024/01/08 08:22:12;;;;;;;11.05;4.55;;;;;;;;;;4960178;28;20059;-75
2024/01/08 08:24:39;;;;;;;14.13;4.90;;;;;;;;;;4969814;28;20035;-75
2024/01/08 08:27:06;;;;;;;13.68;4.35;;;;;;;;;;4950215;28;20036;-76
2024/01/08 08:29:33;;;;;;;16.05;4.88;;;;;;;;;;4960477;28;20035;-75
2024/01/08 08:31:59;;;;;;;10.70;4.15;;;;;;;;;;4942612;28;20042;-75
2024/01/08 08:34:25;;;;;;;11.20;4.07;;;;;;;;;;4966032;28;20016;-75
2024/01/08 08:36:52;;;;;;;15.40;5.85;;;;;;;;;;4949043;28;20035;-75
2024/01/08 08:39:18;;;;;;;18.17;7.57;;;;;;;;;;4955269;28;20207;-75
2024/01/08 08:41:45;;;;;;;18.65;8.68;;;;;;;;;;4946115;28;20038;-76
2024/01/08 08:44:12;;;;;;;19.90;8.07;;;;;;;;;;4952623;28;20042;-75
2024/01/08 08:46:40;;;;;;;19.95;7.97;;;;;;;;;;4948220;28;20060;-75
2024/01/08 08:49:09;;;;;;;20.60;8.02;;;;;;;;;;4949554;28;20023;-76
2024/01/08 08:51:37;;;;;;;18.35;9.88;;;;;;;;;;4965010;28;20035;-75
2024/01/08 08:54:06;;;;;;;19.50;9.35;;;;;;;;;;4945910;28;20041;-77
2024/01/08 08:56:36;;;;;;;27.52;10.10;;;;;;;;;;4959326;28;20053;-77
2024/01/08 08:59:04;;;;;;;22.35;11.85;;;;;;;;;;4945144;28;20034;-76
2024/01/08 09:01:31;;;;;;;23.85;11.68;;;;;;;;;;4961125;28;20038;-76
2024/01/08 09:03:57;;;;;;;;;;;;;;;;;;4945045;28;20034;-76
2024/01/08 09:06:24;;;;;;;22.25;10.40;;;;;;;;;;4967225;28;19914;-75
2024/01/08 09:08:55;;;;;;;19.17;8.35;;;;;;;;;;4957204;28;20073;-75
2024/01/08 09:11:23;;;;;;;17.15;6.40;;;;;;;;;;4969134;28;20034;-75
2024/01/08 09:13:50;;;;;;;15.68;5.32;;;;;;;;;;4973205;28;20915;-75
2024/01/08 09:16:18;;;;;;;14.27;4.38;;;;;;;;;;4950202;28;20859;-76
2024/01/08 09:18:47;;;;;;;12.95;3.90;;;;;;;;;;4962519;28;20125;-76
2024/01/08 09:21:14;;;;;;;14.07;5.25;;;;;;;;;;4931036;28;20145;-76
2024/01/08 09:23:40;;;;;;;;;;;;;;;;;;4954418;28;20022;-76
2024/01/08 09:26:07;;;;;;;16.02;5.88;;;;;;;;;;4951066;28;20735;-76
2024/01/08 09:28:34;;;;;;;15.02;5.32;;;;;;;;;;4960687;28;20944;-77
2024/01/08 09:31:01;;;;;;;13.88;4.70;;;;;;;;;;4952975;28;20034;-77
2024/01/08 09:33:29;;;;;;;12.35;4.20;;;;;;;;;;4949822;28;20593;-74
2024/01/08 09:35:58;;;;;;;16.83;6.15;;;;;;;;;;4961617;28;20126;-73
2024/01/08 09:38:25;;;;;;;14.90;6.32;;;;;;;;;;4948504;28;20054;-76
2024/01/08 09:40:53;;;;;;;16.05;5.45;;;;;;;;;;4971941;28;20042;-77
2024/01/08 09:43:21;;;;;;;17.92;10.13;;;;;;;;;;4968805;28;20040;-77
2024/01/08 09:46:05;;;;;;;15.35;5.78;;;;;;;;;;4960861;28;20035;-76
2024/01/08 09:48:34;;;;;;;13.57;4.30;;;;;;;;;;4966106;28;20706;-76
2024/01/08 09:51:00;;;;;;;10.75;2.90;;;;;;;;;;4950166;28;20823;-76
2024/01/08 09:53:33;;;;;;;12.77;3.30;;;;;;;;;;4969444;28;20026;-75
2024/01/08 09:56:03;;;;;;;9.15;2.88;;;;;;;;;;4960920;28;20030;-75
2024/01/08 09:58:30;;;;;;;12.52;4.20;;;;;;;;;;4970434;28;20732;-74
2024/01/08 10:00:58;;;;;;;15.25;6.82;;;;;;;;;;4968715;28;20038;-75
2024/01/08 10:03:26;;;;;;;12.95;5.88;;;;;;;;;;4950174;28;20604;-75
2024/01/08 10:05:56;;;;;;;13.35;4.00;;;;;;;;;;4957075;28;20783;-75
2024/01/08 10:08:32;;;;;;;8.95;2.30;;;;;;;;;;4971340;28;20043;-76
2024/01/08 10:11:00;;;;;;;9.13;2.30;;;;;;;;;;4970155;28;20045;-78
2024/01/08 10:13:27;;;;;;;11.73;3.78;;;;;;;;;;4974980;28;20040;-75
2024/01/08 10:15:53;;;;;;;9.32;2.70;;;;;;;;;;4948160;28;20076;-78
2024/01/08 10:18:19;;;;;;;;;;;;;;;;;;4965150;28;20622;-75
2024/01/08 10:20:48;;;;;;;9.40;2.58;;;;;;;;;;4944205;28;20541;-75
2024/01/08 10:23:25;;;;;;;9.57;2.33;;;;;;;;;;4964438;28;20795;-74
2024/01/08 10:25:52;;;;;;;7.28;2.22;;;;;;;;;;4948317;28;20038;-74
2024/01/08 10:28:21;;;;;;;9.65;2.58;;;;;;;;;;4947981;28;20034;-74
2024/01/08 10:30:52;;;;;;;6.55;1.80;;;;;;;;;;4951716;28;20028;-75
2024/01/08 10:33:20;;;;;;;7.97;1.73;;;;;;;;;;4967106;28;20042;-76
2024/01/08 10:35:48;;;;;;;10.85;1.90;;;;;;;;;;4948128;28;20028;-75
2024/01/08 10:38:36;;;;;;;7.50;1.95;;;;;;;;;;4958626;28;20026;-77
2024/01/08 10:41:04;;;;;;;7.80;1.50;;;;;;;;;;4971021;28;20721;-76
2024/01/08 10:43:32;;;;;;;7.57;1.90;;;;;;;;;;4954756;28;20030;-76
2024/01/08 10:46:04;;;;;;;7.45;2.15;;;;;;;;;;4966606;28;20548;-76
2024/01/08 10:48:45;;;;;;;7.28;1.73;;;;;;;;;;4975068;28;20716;-76
2024/01/08 10:51:25;;;;;;;5.90;1.50;;;;;;;;;;4962436;28;20034;-76
2024/01/08 10:53:53;;;;;;;8.80;1.65;;;;;;;;;;4949231;28;20018;-76
2024/01/08 10:56:23;;;;;;;7.50;2.00;;;;;;;;;;4945225;28;21752;-77
2024/01/08 10:59:08;;;;;;;7.78;1.75;;;;;;;;;;4979310;28;20012;-76
2024/01/08 11:01:36;;;;;;;8.73;1.67;;;;;;;;;;4956725;28;20046;-79
2024/01/08 11:04:07;;;;;;;7.82;1.50;;;;;;;;;;4962995;28;20068;-77
2024/01/08 11:06:38;;;;;;;6.80;1.73;;;;;;;;;;4971780;28;20030;-77
2024/01/08 11:09:25;;;;;;;10.63;2.30;;;;;;;;;;4969669;28;20026;-77
2024/01/08 11:11:54;;;;;;;6.80;1.98;;;;;;;;;;4974910;28;20064;-77
2024/01/08 11:14:21;;;;;;;8.65;3.08;;;;;;;;;;4972482;28;20026;-77
2024/01/08 11:16:48;;;;;;;6.68;1.65;;;;;;;;;;4953808;28;20034;-77
2024/01/08 11:19:21;;;;;;;6.75;2.10;;;;;;;;;;4980589;28;20091;-77
2024/01/08 11:21:57;;;;;;;7.53;2.45;;;;;;;;;;4961024;28;20064;-76
2024/01/08 11:24:25;;;;;;;9.65;3.05;;;;;;;;;;4930389;28;20135;-75
2024/01/08 11:27:12;;;;;;;8.77;2.10;;;;;;;;;;4955820;28;20591;-75
2024/01/08 11:29:38;;;;;;;7.13;1.30;;;;;;;;;;4971378;28;20034;-76
2024/01/08 11:32:23;;;;;;;7.22;1.35;;;;;;;;;;4950162;28;20730;-75
2024/01/08 11:35:00;;;;;;;6.68;1.40;;;;;;;;;;4965972;28;20030;-76
2024/01/08 11:37:41;;;;;;;8.85;2.20;;;;;;;;;;4969285;28;20058;-76
2024/01/08 11:40:20;;;;;;;7.20;2.15;;;;;;;;;;4960878;28;20500;-75
2024/01/08 11:42:49;;;;;;;9.30;2.70;;;;;;;;;;4950540;28;20035;-75
2024/01/08 11:45:19;;;;;;;6.93;2.42;;;;;;;;;;4970970;28;20749;-76
2024/01/08 11:47:46;;;;;;;7.68;1.73;;;;;;;;;;4973343;28;20073;-76
2024/01/08 11:50:14;;;;;;;7.05;2.08;;;;;;;;;;4974540;28;21335;-76
2024/01/08 11:52:42;;;;;;;8.90;1.73;;;;;;;;;;4963336;28;20097;-76
2024/01/08 11:55:10;;;;;;;6.95;1.58;;;;;;;;;;4961277;28;20030;-76
2024/01/08 11:57:38;;;;;;;8.55;1.63;;;;;;;;;;4967357;28;20115;-76
2024/01/08 12:00:23;;;;;;;6.75;1.45;;;;;;;;;;4959184;28;20062;-76
2024/01/08 12:03:08;;;;;;;5.30;1.23;;;;;;;;;;4959609;28;20041;-75
2024/01/08 12:05:39;;;;;;;7.00;1.20;;;;;;;;;;4942950;28;20148;-75
2024/01/08 12:08:09;;;;;;;7.03;1.38;;;;;;;;;;4968281;28;20031;-76
2024/01/08 12:10:37;;;;;;;7.05;1.50;;;;;;;;;;4973979;28;20057;-75
2024/01/08 12:13:03;;;;;;;7.00;1.60;;;;;;;;;;4947218;28;20817;-76
2024/01/08 12:15:31;;;;;;;7.93;1.30;;;;;;;;;;4967280;28;20113;-76
2024/01/08 12:17:58;;;;;;;5.05;1.20;;;;;;;;;;4965436;28;20030;-76
2024/01/08 12:20:27;;;;;;;7.47;2.00;;;;;;;;;;4944070;28;20037;-75
2024/01/08 12:22:54;;;;;;;6.65;1.55;;;;;;;;;;4934901;28;20172;-75
2024/01/08 12:25:22;;;;;;;6.35;1.38;;;;;;;;;;4962959;28;20513;-76
2024/01/08 12:27:52;;;;;;;7.70;1.50;;;;;;;;;;4965562;28;20040;-78
2024/01/08 12:30:21;;;;;;;7.80;1.63;;;;;;;;;;4970729;28;20046;-75
2024/01/08 12:32:47;;;;;;;7.70;1.40;;;;;;;;;;4950067;28;20030;-75
2024/01/08 12:35:17;;;;;;;5.15;1.20;;;;;;;;;;4968769;28;20038;-75
2024/01/08 12:37:45;;;;;;;8.50;2.08;;;;;;;;;;4970531;28;20027;-74
2024/01/08 12:40:13;;;;;;;6.93;1.77;;;;;;;;;;4959864;28;20576;-76
2024/01/08 12:42:40;;;;;;;6.13;1.70;;;;;;;;;;4947027;28;20700;-74
2024/01/08 12:45:09;;;;;;;5.72;1.65;;;;;;;;;;4951672;28;20034;-75
2024/01/08 12:47:36;;;;;;;6.00;1.40;;;;;;;;;;4959697;28;20069;-75
2024/01/08 12:50:02;;;;;;;6.82;1.48;;;;;;;;;;4964438;28;20098;-74
2024/01/08 12:52:28;;;;;;;6.97;1.80;;;;;;;;;;4962159;28;20121;-75
2024/01/08 12:54:56;;;;;;;6.18;1.63;;;;;;;;;;4942133;28;20034;-74
2024/01/08 12:57:28;;;;;;;7.90;1.80;;;;;;;;;;4965784;28;20046;-75
2024/01/08 12:59:55;;;;;;;7.18;2.00;;;;;;;;;;4971653;28;20030;-74
2024/01/08 13:02:27;;;;;;;7.82;2.42;;;;;;;;;;4972546;28;20076;-75
2024/01/08 13:04:55;;;;;;;8.18;2.40;;;;;;;;;;4946209;28;20038;-75
2024/01/08 13:07:24;;;;;;;8.32;3.00;;;;;;;;;;4946617;28;20125;-75
2024/01/08 13:09:54;;;;;;;7.80;1.80;;;;;;;;;;4945219;28;20419;-75
2024/01/08 13:12:21;;;;;;;10.60;3.08;;;;;;;;;;4964045;28;20030;-75
2024/01/08 13:14:50;;;;;;;9.80;2.88;;;;;;;;;;4950645;28;20046;-74
2024/01/08 13:17:17;;;;;;;8.90;2.47;;;;;;;;;;4966705;28;20559;-75
2024/01/08 13:19:46;;;;;;;8.43;2.92;;;;;;;;;;4954694;28;20041;-74
2024/01/08 13:22:13;;;;;;;8.07;2.58;;;;;;;;;;4948586;28;21457;-75
2024/01/08 13:24:40;;;;;;;11.25;2.50;;;;;;;;;;4971714;28;20038;-75
2024/01/08 13:27:11;;;;;;;11.93;3.53;;;;;;;;;;4956414;28;20039;-75
2024/01/08 13:29:39;;;;;;;8.40;2.30;;;;;;;;;;4970809;28;20035;-75
2024/01/08 13:32:05;;;;;;;9.40;2.38;;;;;;;;;;4967029;28;20058;-75
2024/01/08 13:34:32;;;;;;;9.68;2.63;;;;;;;;;;4971356;28;20038;-75
2024/01/08 13:37:00;;;;;;;7.88;2.50;;;;;;;;;;4963275;28;20065;-75
2024/01/08 13:39:29;;;;;;;10.48;2.65;;;;;;;;;;4961892;28;20028;-76
2024/01/08 13:41:58;;;;;;;7.85;2.42;;;;;;;;;;4940528;28;20040;-76
2024/01/08 13:44:25;;;;;;;8.55;2.10;;;;;;;;;;4947423;28;20038;-76
2024/01/08 13:46:55;;;;;;;10.10;2.40;;;;;;;;;;4961483;28;20057;-76
2024/01/08 13:49:23;;;;;;;8.50;2.22;;;;;;;;;;4969842;28;21048;-76
2024/01/08 13:51:50;;;;;;;9.68;2.58;;;;;;;;;;4951697;28;20068;-76
2024/01/08 13:54:19;;;;;;;9.25;2.33;;;;;;;;;;4972409;28;20054;-76
2024/01/08 13:56:46;;;;;;;8.27;2.72;;;;;;;;;;5029081;28;20033;-75
2024/01/08 13:59:14;;;;;;;7.80;1.92;;;;;;;;;;5019417;28;20095;-76
2024/01/08 14:01:42;;;;;;;9.00;2.58;;;;;;;;;;5020573;28;20047;-76
2024/01/08 14:04:10;;;;;;;9.07;2.33;;;;;;;;;;5019636;28;20110;-76
2024/01/08 14:06:38;;;;;;;9.82;2.60;;;;;;;;;;5019388;28;20097;-76
2024/01/08 14:09:05;;;;;;;7.68;2.47;;;;;;;;;;5017453;28;20033;-76
2024/01/08 14:11:33;;;;;;;8.27;2.65;;;;;;;;;;5020038;28;20579;-77
2024/01/08 14:14:00;;;;;;;7.65;2.45;;;;;;;;;;5018900;28;20125;-75
2024/01/08 14:16:27;;;;;;;10.48;2.45;;;;;;;;;;5016126;28;20536;-75
2024/01/08 14:18:55;;;;;;;8.30;2.20;;;;;;;;;;5009709;28;20955;-75
2024/01/08 14:21:23;;;;;;;7.97;2.50;;;;;;;;;;5013937;28;20032;-75
2024/01/08 14:23:51;;;;;;;10.63;3.17;;;;;;;;;;5013375;28;20115;-75
2024/01/08 14:26:18;;;;;;;9.23;2.90;;;;;;;;;;5013827;28;20036;-75
2024/01/08 14:28:46;;;;;;;10.52;3.05;;;;;;;;;;5020063;28;20033;-76
2024/01/08 14:31:15;;;;;;;7.57;2.38;;;;;;;;;;5008524;28;20051;-75
2024/01/08 14:33:43;;;;;;;8.73;2.67;;;;;;;;;;5013123;28;20059;-76
2024/01/08 14:36:10;;;;;;;7.88;2.10;;;;;;;;;;5008178;28;20099;-76
2024/01/08 14:38:37;;;;;;;7.13;1.98;;;;;;;;;;5012367;28;20045;-76
2024/01/08 14:41:05;;;;;;;7.47;2.30;;;;;;;;;;5010081;28;20033;-76
2024/01/08 14:43:32;;;;;;;6.13;1.88;;;;;;;;;;5006127;28;20048;-76